Pine Level, Alabama
Current Conditions -  °F | °C
As of 5:53 PM on Wednesday 26 Nov 2014 (Local Time) from KTOI Reporting Station
Clear Clear  
Wind Chill: 44°   Ceiling: Unl
Heat Index: 46°   Visibility: 10mi
Dew Point: 33°   Wind: 5mph
Humidity: 61%   Direction: 180°S
Pressure: 30.13"   Gusts: NA
Location:  32.07°N, 86.06°W
Report Text: KTOI 262353Z AUTO 18004KT 10SM CLR 08/01 A3013 RMK AO2 SLP204 T00780006 10167 20078 55001
Loading
Personal Weather Stations






























Interactive Weather Map New forecast layout! Learn more

10-Day Weather Forecast

Advertisements
Track Severe Weather on mobile